createdAt,value
2023-03-04T00:01:42.971Z,90.85
2023-03-04T00:04:10.576Z,84.22
2023-03-04T00:06:38.128Z,89.55
2023-03-04T00:09:05.761Z,94.88
2023-03-04T00:11:33.328Z,80.65
2023-03-04T00:14:01.040Z,87.13
2023-03-04T00:16:28.678Z,86.90
2023-03-04T00:18:56.983Z,89.70
2023-03-04T00:23:52.209Z,83.90
2023-03-04T00:26:19.742Z,90.45
2023-03-04T00:28:48.233Z,83.45
2023-03-04T00:31:15.863Z,79.15
2023-03-04T00:33:44.220Z,62.42
2023-03-04T00:36:11.837Z,82.20
2023-03-04T00:38:39.439Z,73.53
2023-03-04T00:41:06.973Z,80.30
2023-03-04T00:43:34.976Z,84.10
2023-03-04T00:46:02.564Z,82.68
2023-03-04T00:48:30.883Z,79.93
2023-03-04T00:50:58.455Z,86.65
2023-03-04T00:53:25.972Z,83.00
2023-03-04T00:55:53.504Z,80.30
2023-03-04T00:58:21.033Z,76.20
2023-03-04T01:00:48.621Z,68.50
2023-03-04T01:03:16.464Z,87.82
2023-03-04T01:05:44.209Z,81.00
2023-03-04T01:08:11.780Z,88.13
2023-03-04T01:10:39.294Z,80.13
2023-03-04T01:13:06.836Z,79.30
2023-03-04T01:15:34.358Z,80.28
2023-03-04T01:18:01.933Z,77.57
2023-03-04T01:20:29.494Z,80.65
2023-03-04T01:22:57.006Z,83.05
2023-03-04T01:25:24.596Z,80.20
2023-03-04T01:27:53.024Z,79.38
2023-03-04T01:30:20.604Z,78.80
2023-03-04T01:32:48.122Z,82.57
2023-03-04T01:35:17.543Z,82.13
2023-03-04T01:37:45.189Z,84.07
2023-03-04T01:40:13.338Z,86.30
2023-03-04T01:42:40.883Z,87.20
2023-03-04T01:45:08.699Z,84.53
2023-03-04T01:47:36.313Z,76.78
2023-03-04T01:50:05.073Z,87.13
2023-03-04T01:52:32.633Z,78.75
2023-03-04T01:55:00.185Z,82.75
2023-03-04T01:57:27.953Z,84.63
2023-03-04T02:00:14.103Z,91.55
2023-03-04T02:02:41.547Z,77.20
2023-03-04T02:05:09.729Z,74.95
2023-03-04T02:07:37.426Z,76.93
2023-03-04T02:10:05.082Z,71.25
2023-03-04T02:12:32.633Z,82.13
2023-03-04T02:15:00.152Z,83.60
2023-03-04T02:17:28.614Z,77.05
2023-03-04T02:19:56.353Z,72.03
2023-03-04T02:22:23.899Z,78.18
2023-03-04T02:24:53.584Z,81.90
2023-03-04T02:27:22.255Z,77.13
2023-03-04T02:29:50.182Z,80.65
2023-03-04T02:32:17.869Z,80.30
2023-03-04T02:34:46.981Z,74.20
2023-03-04T02:37:14.657Z,77.22
2023-03-04T02:39:47.099Z,84.38
2023-03-04T02:42:14.647Z,79.35
2023-03-04T02:44:46.171Z,70.95
2023-03-04T02:47:14.244Z,71.63
2023-03-04T02:49:41.861Z,79.65
2023-03-04T02:52:16.317Z,79.32
2023-03-04T02:54:43.879Z,74.47
2023-03-04T02:57:12.273Z,82.72
2023-03-04T02:59:42.470Z,78.38
2023-03-04T03:02:13.969Z,77.63
2023-03-04T03:04:41.624Z,83.88
2023-03-04T03:07:13.008Z,76.57
2023-03-04T03:09:40.801Z,83.15
2023-03-04T03:12:08.420Z,77.00
2023-03-04T03:14:35.920Z,75.60
2023-03-04T03:17:05.226Z,79.53
2023-03-04T03:19:32.729Z,87.50
2023-03-04T03:22:03.124Z,85.75
2023-03-04T03:24:30.782Z,83.97
2023-03-04T03:26:58.386Z,88.65
2023-03-04T03:29:25.949Z,75.93
2023-03-04T03:31:54.092Z,88.93
2023-03-04T03:34:22.017Z,91.55
2023-03-04T03:36:50.461Z,84.75
2023-03-04T03:39:18.018Z,82.20
2023-03-04T03:41:45.602Z,86.00
2023-03-04T03:44:13.138Z,79.10
2023-03-04T03:46:40.667Z,85.43
2023-03-04T03:49:08.219Z,58.97
2023-03-04T03:51:35.721Z,74.00
2023-03-04T03:54:03.246Z,81.32
2023-03-04T03:56:30.772Z,73.55
2023-03-04T03:58:58.305Z,79.03
2023-03-04T04:01:25.835Z,71.25
2023-03-04T04:03:53.426Z,80.80
2023-03-04T04:06:21.010Z,71.88
2023-03-04T04:08:48.518Z,71.43
2023-03-04T04:11:16.049Z,71.35
2023-03-04T04:13:43.628Z,77.72
2023-03-04T04:16:11.555Z,72.45
2023-03-04T04:18:39.191Z,81.00
2023-03-04T04:21:06.752Z,74.35
2023-03-04T04:23:34.281Z,71.65
2023-03-04T04:26:01.771Z,74.65
2023-03-04T04:28:29.310Z,74.53
2023-03-04T04:30:56.884Z,80.72
2023-03-04T04:33:24.483Z,79.35
2023-03-04T04:35:52.092Z,81.32
2023-03-04T04:38:19.646Z,79.97
2023-03-04T04:40:47.147Z,83.55
2023-03-04T04:43:14.705Z,77.20
2023-03-04T04:45:42.691Z,80.28
2023-03-04T04:48:10.232Z,82.65
2023-03-04T04:50:37.816Z,76.55
2023-03-04T04:53:05.349Z,78.88
2023-03-04T04:55:33.287Z,77.07
2023-03-04T04:58:00.827Z,77.40
2023-03-04T05:00:28.338Z,73.60
2023-03-04T05:02:55.981Z,76.65
2023-03-04T05:05:23.524Z,67.65
2023-03-04T05:07:51.089Z,74.20
2023-03-04T05:10:18.611Z,67.13
2023-03-04T05:12:46.223Z,69.32
2023-03-04T05:15:13.739Z,49.45
2023-03-04T05:17:41.270Z,66.82
2023-03-04T05:20:09.171Z,69.90
2023-03-04T05:22:36.691Z,68.28
2023-03-04T05:25:04.263Z,69.20
2023-03-04T05:27:31.786Z,73.45
2023-03-04T05:30:01.966Z,56.47
2023-03-04T05:32:29.505Z,75.28
2023-03-04T05:34:57.110Z,74.13
2023-03-04T05:37:24.617Z,76.75
2023-03-04T05:39:52.101Z,77.00
2023-03-04T05:42:19.778Z,74.07
2023-03-04T05:44:47.329Z,75.57
2023-03-04T05:47:14.924Z,76.72
2023-03-04T05:49:42.637Z,73.40
2023-03-04T05:52:10.219Z,69.55
2023-03-04T05:54:37.730Z,72.53
2023-03-04T05:57:05.294Z,71.63
2023-03-04T05:59:32.811Z,52.40
2023-03-04T06:02:00.307Z,53.80
2023-03-04T06:04:27.817Z,74.93
2023-03-04T06:06:55.380Z,54.67
2023-03-04T06:09:22.906Z,59.50
2023-03-04T06:11:50.529Z,72.93
2023-03-04T06:14:18.175Z,74.65
2023-03-04T06:16:45.689Z,76.35
2023-03-04T06:19:13.316Z,74.68
2023-03-04T06:21:40.819Z,75.82
2023-03-04T06:24:08.371Z,69.63
2023-03-04T06:26:35.904Z,65.75
2023-03-04T06:29:03.425Z,69.47
2023-03-04T06:31:31.147Z,66.70
2023-03-04T06:33:58.744Z,64.75
2023-03-04T06:36:26.255Z,66.38
2023-03-04T06:38:53.824Z,64.65
2023-03-04T06:41:21.424Z,69.10
2023-03-04T06:43:48.950Z,63.13
2023-03-04T06:46:16.545Z,69.88
2023-03-04T06:48:44.104Z,68.70
2023-03-04T06:51:11.952Z,76.38
2023-03-04T06:53:39.539Z,68.72
2023-03-04T06:56:07.369Z,70.20
2023-03-04T06:58:34.894Z,73.57
2023-03-04T07:01:12.548Z,69.30
2023-03-04T07:03:40.129Z,75.90
2023-03-04T07:06:07.773Z,65.68
2023-03-04T07:08:35.281Z,68.57
2023-03-04T07:11:02.806Z,65.53
2023-03-04T07:13:30.375Z,62.08
2023-03-04T07:15:58.050Z,66.90
2023-03-04T07:18:25.675Z,61.17
2023-03-04T07:20:53.592Z,67.35
2023-03-04T07:23:21.153Z,62.88
2023-03-04T07:25:49.310Z,65.47
2023-03-04T07:28:17.010Z,66.38
2023-03-04T07:30:44.623Z,63.83
2023-03-04T07:33:12.239Z,65.53
2023-03-04T07:35:39.828Z,54.20
2023-03-04T07:38:07.397Z,57.58
2023-03-04T07:40:34.929Z,54.90
2023-03-04T07:43:02.558Z,55.17
2023-03-04T07:45:30.163Z,53.63
2023-03-04T07:47:58.756Z,55.75
2023-03-04T07:50:26.280Z,61.17
2023-03-04T07:52:54.247Z,57.65
2023-03-04T07:55:21.807Z,53.20
2023-03-04T07:57:49.366Z,55.60
2023-03-04T08:00:17.536Z,58.25
2023-03-04T08:02:45.558Z,53.17
2023-03-04T08:05:13.126Z,65.88
2023-03-04T08:07:40.662Z,54.75
2023-03-04T08:10:08.554Z,58.35
2023-03-04T08:12:36.518Z,57.50
2023-03-04T08:15:04.260Z,73.65
2023-03-04T08:17:31.803Z,52.50
2023-03-04T08:19:59.439Z,43.67
2023-03-04T08:22:26.975Z,65.00
2023-03-04T08:24:54.467Z,56.55
2023-03-04T08:27:22.024Z,54.40
2023-03-04T08:29:49.563Z,49.80
2023-03-04T08:32:17.319Z,66.72
2023-03-04T08:34:44.952Z,67.55
2023-03-04T08:37:12.471Z,58.97
2023-03-04T08:39:40.173Z,55.30
2023-03-04T08:42:07.712Z,88.40
2023-03-04T08:44:35.297Z,52.95
2023-03-04T08:47:02.876Z,66.28
2023-03-04T08:49:30.396Z,66.93
2023-03-04T08:51:57.909Z,60.00
2023-03-04T08:54:25.575Z,57.00
2023-03-04T08:56:53.114Z,51.55
2023-03-04T08:59:20.672Z,45.63
2023-03-04T09:01:48.233Z,60.65
2023-03-04T09:04:15.755Z,61.72
2023-03-04T09:06:43.319Z,50.65
2023-03-04T09:09:10.887Z,55.20
2023-03-04T09:11:38.519Z,50.30
2023-03-04T09:14:06.029Z,66.82
2023-03-04T09:16:33.555Z,54.85
2023-03-04T09:19:01.340Z,54.97
2023-03-04T09:21:28.867Z,64.57
2023-03-04T09:23:56.380Z,60.33
2023-03-04T09:26:24.753Z,55.90
2023-03-04T09:31:19.793Z,49.55
2023-03-04T09:33:47.401Z,52.88
2023-03-04T09:36:15.093Z,50.00
2023-03-04T09:38:42.669Z,56.80
2023-03-04T09:41:17.188Z,46.42
2023-03-04T09:43:45.212Z,50.75
2023-03-04T09:46:13.950Z,48.13
2023-03-04T09:48:44.905Z,58.65
2023-03-04T09:51:20.050Z,53.38
2023-03-04T09:54:07.909Z,49.58
2023-03-04T09:56:36.234Z,50.63
2023-03-04T10:01:38.010Z,46.03
2023-03-04T10:04:24.706Z,49.17
2023-03-04T10:06:54.436Z,40.78
2023-03-04T10:09:40.916Z,52.97
2023-03-04T10:12:10.833Z,46.15
2023-03-04T10:14:39.341Z,47.45
2023-03-04T10:17:09.930Z,40.22
2023-03-04T10:19:43.389Z,41.80
2023-03-04T10:22:16.127Z,37.40
2023-03-04T10:24:47.029Z,41.78
2023-03-04T10:27:15.500Z,29.40
2023-03-04T10:29:43.040Z,29.55
2023-03-04T10:32:15.117Z,44.35
2023-03-04T10:34:42.634Z,39.85
2023-03-04T10:37:11.625Z,43.72
2023-03-04T10:39:40.374Z,31.70
2023-03-04T10:42:24.305Z,37.67
2023-03-04T10:44:53.210Z,40.65
2023-03-04T10:47:20.732Z,31.70
2023-03-04T10:49:58.109Z,33.45
2023-03-04T10:52:41.996Z,34.58
2023-03-04T10:55:16.599Z,37.20
2023-03-04T10:57:44.490Z,30.98
2023-03-04T11:00:18.144Z,35.88
2023-03-04T11:02:46.232Z,34.80
2023-03-04T11:07:55.563Z,33.40
2023-03-04T11:10:23.695Z,39.03
2023-03-04T11:12:54.052Z,37.28
2023-03-04T11:15:27.259Z,31.55
2023-03-04T11:17:55.737Z,35.03
2023-03-04T11:20:33.180Z,35.90
2023-03-04T11:23:21.033Z,29.83
2023-03-04T11:25:49.612Z,29.27
2023-03-04T11:28:20.140Z,29.42
2023-03-04T11:30:47.648Z,42.13
2023-03-04T11:33:18.229Z,29.65
2023-03-04T11:35:58.152Z,31.35
2023-03-04T11:38:28.045Z,35.38
2023-03-04T11:40:56.243Z,31.95
2023-03-04T11:43:26.082Z,41.08
2023-03-04T11:45:53.598Z,36.28
2023-03-04T11:48:43.329Z,34.75
2023-03-04T11:51:29.679Z,30.95
2023-03-04T11:54:00.276Z,41.78
2023-03-04T11:56:44.868Z,31.00
2023-03-04T11:59:15.430Z,43.20
2023-03-04T12:02:01.776Z,31.13
2023-03-04T12:04:29.367Z,33.38
2023-03-04T12:07:16.360Z,34.67
2023-03-04T12:09:52.811Z,30.20
2023-03-04T12:12:23.069Z,27.17
2023-03-04T12:14:56.484Z,27.88
2023-03-04T12:17:27.151Z,34.88
2023-03-04T12:19:58.372Z,40.83
2023-03-04T12:22:29.153Z,27.67
2023-03-04T12:25:02.635Z,40.42
2023-03-04T12:27:42.160Z,34.95
2023-03-04T12:30:12.509Z,30.13
2023-03-04T12:33:00.496Z,42.72
2023-03-04T12:35:34.565Z,26.15
2023-03-04T12:38:04.677Z,24.85
2023-03-04T12:40:35.238Z,27.30
2023-03-04T12:43:10.466Z,25.63
2023-03-04T12:45:40.881Z,22.73
2023-03-04T12:48:13.222Z,25.17
2023-03-04T12:50:54.184Z,34.58
2023-03-04T12:53:31.806Z,27.02
2023-03-04T12:55:59.340Z,28.13
2023-03-04T12:58:30.868Z,23.92
2023-03-04T13:01:15.813Z,30.00
2023-03-04T13:03:46.384Z,25.00
2023-03-04T13:06:13.910Z,24.30
2023-03-04T13:08:45.800Z,23.17
2023-03-04T13:11:29.009Z,35.40
2023-03-04T13:14:06.605Z,26.40
2023-03-04T13:16:38.047Z,26.02
2023-03-04T13:19:25.526Z,33.38
2023-03-04T13:21:54.434Z,27.13
2023-03-04T13:24:40.791Z,23.48
2023-03-04T13:27:27.195Z,27.73
2023-03-04T13:29:54.730Z,27.08
2023-03-04T13:32:38.576Z,26.42
2023-03-04T13:35:25.042Z,30.92
2023-03-04T13:37:59.092Z,28.58
2023-03-04T13:40:33.765Z,28.95
2023-03-04T13:43:38.487Z,30.92
2023-03-04T13:46:21.243Z,24.13
2023-03-04T13:48:51.949Z,24.40
2023-03-04T13:51:29.401Z,25.85
2023-03-04T13:56:31.447Z,29.08
2023-03-04T13:59:03.455Z,25.42
2023-03-04T14:01:34.325Z,25.02
2023-03-04T14:04:02.410Z,26.38
2023-03-04T14:08:57.650Z,28.30
2023-03-04T14:11:35.473Z,22.50
2023-03-04T14:14:04.916Z,27.30
2023-03-04T14:16:33.160Z,25.85
2023-03-04T14:21:28.599Z,26.10
2023-03-04T14:24:03.608Z,23.83
2023-03-04T14:26:31.242Z,27.95
2023-03-04T14:28:59.666Z,31.60
2023-03-04T14:31:30.016Z,24.00
2023-03-04T14:34:04.443Z,22.98
2023-03-04T14:36:35.304Z,23.92
2023-03-04T14:39:03.701Z,20.67
2023-03-04T14:41:33.961Z,24.27
2023-03-04T14:44:01.567Z,22.42
2023-03-04T14:46:31.431Z,23.02
2023-03-04T14:48:59.069Z,25.40
2023-03-04T14:51:34.217Z,18.48
2023-03-04T14:54:01.816Z,18.60
2023-03-04T14:56:30.023Z,22.33
2023-03-04T15:03:54.837Z,15.25
2023-03-04T15:06:22.961Z,24.17
2023-03-04T15:09:02.501Z,27.00
2023-03-04T15:11:34.000Z,23.15
2023-03-04T15:14:01.610Z,19.63
2023-03-04T15:16:30.520Z,19.05
2023-03-04T15:18:58.144Z,23.38
2023-03-04T15:21:28.821Z,23.60
2023-03-04T15:23:56.361Z,19.92
2023-03-04T15:26:24.418Z,21.52
2023-03-04T15:28:51.930Z,25.75
2023-03-04T15:31:20.317Z,23.15
2023-03-04T15:33:47.927Z,26.10
2023-03-04T15:36:16.313Z,20.55
2023-03-04T15:38:47.885Z,22.98
2023-03-04T15:41:16.457Z,23.17
2023-03-04T15:43:44.013Z,21.92
2023-03-04T15:46:12.377Z,23.83
2023-03-04T15:48:39.937Z,27.33
2023-03-04T15:51:07.625Z,26.33
2023-03-04T15:53:39.691Z,26.20
2023-03-04T15:56:09.221Z,24.75
2023-03-04T15:58:37.145Z,26.52
2023-03-04T16:01:04.869Z,20.02
2023-03-04T16:03:32.625Z,24.80
2023-03-04T16:06:00.183Z,22.63
2023-03-04T16:08:27.696Z,25.75
2023-03-04T16:10:55.225Z,30.35
2023-03-04T16:13:23.772Z,32.28
2023-03-04T16:15:51.434Z,23.38
2023-03-04T16:18:19.467Z,28.10
2023-03-04T16:20:47.598Z,25.90
2023-03-04T16:23:19.844Z,24.48
2023-03-04T16:25:48.208Z,23.38
2023-03-04T16:30:43.289Z,27.70
2023-03-04T16:33:11.443Z,24.83
2023-03-04T16:35:39.638Z,24.50
2023-03-04T16:38:11.740Z,25.08
2023-03-04T16:40:39.369Z,25.25
2023-03-04T16:43:07.498Z,26.20
2023-03-04T16:45:37.680Z,26.17
2023-03-04T16:48:05.445Z,22.10
2023-03-04T16:50:33.017Z,19.23
2023-03-04T16:53:00.546Z,24.80
2023-03-04T16:55:28.685Z,31.05
2023-03-04T16:57:57.629Z,24.50
2023-03-04T17:00:25.607Z,24.70
2023-03-04T17:02:54.643Z,25.77
2023-03-04T17:05:22.433Z,27.25
2023-03-04T17:07:50.021Z,29.02
2023-03-04T17:10:17.673Z,21.83
2023-03-04T17:12:45.521Z,27.25
2023-03-04T17:15:13.689Z,26.08
2023-03-04T17:17:41.487Z,26.23
2023-03-04T17:20:09.978Z,28.17
2023-03-04T17:22:37.523Z,27.08
2023-03-04T17:25:05.241Z,26.23
2023-03-04T17:27:32.747Z,31.23
2023-03-04T17:30:00.355Z,16.98
2023-03-04T17:32:28.464Z,28.27
2023-03-04T17:34:56.039Z,33.05
2023-03-04T17:37:23.822Z,33.55
2023-03-04T17:39:51.360Z,30.58
2023-03-04T17:42:18.984Z,31.75
2023-03-04T17:44:46.540Z,28.23
2023-03-04T17:47:14.324Z,36.30
2023-03-04T17:49:41.872Z,24.33
2023-03-04T17:52:09.497Z,29.50
2023-03-04T17:54:37.842Z,25.05
2023-03-04T17:59:32.956Z,26.02
2023-03-04T18:02:00.568Z,26.25
2023-03-04T18:04:28.212Z,27.13
2023-03-04T18:06:55.789Z,27.98
2023-03-04T18:09:23.298Z,25.20
2023-03-04T18:11:50.858Z,24.58
2023-03-04T18:14:18.382Z,27.52
2023-03-04T18:16:45.953Z,26.10
2023-03-04T18:19:13.516Z,35.72
2023-03-04T18:21:41.099Z,28.55
2023-03-04T18:24:09.613Z,31.10
2023-03-04T18:26:37.144Z,30.88
2023-03-04T18:29:05.011Z,27.00
2023-03-04T18:31:32.639Z,28.00
2023-03-04T18:34:01.490Z,28.95
2023-03-04T18:36:29.650Z,27.77
2023-03-04T18:38:59.261Z,28.92
2023-03-04T18:41:27.872Z,30.15
2023-03-04T18:43:55.615Z,25.23
2023-03-04T18:46:30.235Z,34.55
2023-03-04T18:49:00.055Z,35.38
2023-03-04T18:51:27.622Z,33.55
2023-03-04T18:53:55.177Z,32.78
2023-03-04T18:56:28.090Z,29.58
2023-03-04T18:58:55.637Z,28.42
2023-03-04T19:01:23.391Z,33.65
2023-03-04T19:03:51.428Z,28.02
2023-03-04T19:06:18.993Z,30.27
2023-03-04T19:08:46.602Z,28.90
2023-03-04T19:11:14.597Z,34.83
2023-03-04T19:13:42.116Z,24.50
2023-03-04T19:16:09.713Z,27.25
2023-03-04T19:18:37.284Z,29.65
2023-03-04T19:21:05.456Z,30.67
2023-03-04T19:23:33.183Z,32.05
2023-03-04T19:26:00.687Z,30.92
2023-03-04T19:28:28.200Z,25.63
2023-03-04T19:30:58.972Z,27.45
2023-03-04T19:33:26.888Z,28.90
2023-03-04T19:35:54.475Z,27.67
2023-03-04T19:38:22.289Z,37.03
2023-03-04T19:40:49.788Z,32.65
2023-03-04T19:43:17.314Z,31.58
2023-03-04T19:45:44.925Z,34.58
2023-03-04T19:48:12.449Z,36.72
2023-03-04T19:50:39.970Z,31.23
2023-03-04T19:53:07.489Z,39.55
2023-03-04T19:55:37.943Z,22.13
2023-03-04T19:58:05.569Z,37.05
2023-03-04T20:00:33.162Z,33.28
2023-03-04T20:03:01.633Z,34.13
2023-03-04T20:05:29.457Z,30.75
2023-03-04T20:07:56.987Z,34.47
2023-03-04T20:10:24.521Z,32.60
2023-03-04T20:12:52.733Z,34.10
2023-03-04T20:15:20.337Z,28.70
2023-03-04T20:17:47.829Z,36.20
2023-03-04T20:20:16.330Z,36.53
2023-03-04T20:22:43.888Z,34.75
2023-03-04T20:25:11.408Z,29.38
2023-03-04T20:27:38.938Z,23.55
2023-03-04T20:30:06.751Z,35.92
2023-03-04T20:32:34.334Z,35.63
2023-03-04T20:35:01.931Z,32.03
2023-03-04T20:37:29.501Z,30.88
2023-03-04T20:39:58.018Z,35.03
2023-03-04T20:42:25.556Z,30.88
2023-03-04T20:44:53.071Z,36.75
2023-03-04T20:47:20.585Z,29.17
2023-03-04T20:49:48.128Z,33.10
2023-03-04T20:52:15.707Z,31.50
2023-03-04T20:54:43.268Z,34.25
2023-03-04T20:57:10.912Z,34.10
2023-03-04T20:59:39.016Z,40.40
2023-03-04T21:02:06.984Z,34.63
2023-03-04T21:04:34.649Z,34.47
2023-03-04T21:07:02.485Z,34.13
2023-03-04T21:09:29.992Z,32.55
2023-03-04T21:11:59.654Z,33.80
2023-03-04T21:14:28.977Z,34.50
2023-03-04T21:16:57.618Z,33.72
2023-03-04T21:19:27.242Z,29.02
2023-03-04T21:21:55.184Z,34.20
2023-03-04T21:24:23.033Z,31.02
2023-03-04T21:26:50.595Z,38.45
2023-03-04T21:29:18.828Z,34.38
2023-03-04T21:31:47.565Z,36.13
2023-03-04T21:34:16.011Z,31.55
2023-03-04T21:36:43.585Z,30.65
2023-03-04T21:39:17.936Z,33.85
2023-03-04T21:41:45.685Z,32.92
2023-03-04T21:44:22.759Z,36.08
2023-03-04T21:46:57.033Z,41.13
2023-03-04T21:51:52.009Z,23.83
2023-03-04T21:54:19.533Z,38.45
2023-03-04T21:56:47.030Z,38.67
2023-03-04T21:59:14.983Z,39.15
2023-03-04T22:01:42.633Z,42.78
2023-03-04T22:04:10.218Z,34.90
2023-03-04T22:06:39.365Z,39.50
2023-03-04T22:09:07.749Z,44.03
2023-03-04T22:11:35.335Z,35.83
2023-03-04T22:14:02.975Z,36.42
2023-03-04T22:16:30.822Z,30.65
2023-03-04T22:18:58.593Z,38.63
2023-03-04T22:21:26.166Z,34.40
2023-03-04T22:23:53.797Z,42.85
2023-03-04T22:26:34.082Z,38.42
2023-03-04T22:29:01.828Z,41.03
2023-03-04T22:31:30.475Z,36.55
2023-03-04T22:34:01.943Z,37.00
2023-03-04T22:36:29.669Z,42.65
2023-03-04T22:38:57.181Z,38.80
2023-03-04T22:41:24.809Z,36.95
2023-03-04T22:43:52.955Z,38.70
2023-03-04T22:46:22.416Z,38.55
2023-03-04T22:48:50.241Z,36.28
2023-03-04T22:51:17.793Z,37.78
2023-03-04T22:53:45.316Z,30.70
2023-03-04T22:56:13.877Z,35.97
2023-03-04T22:58:41.466Z,41.58
2023-03-04T23:01:09.088Z,39.95
2023-03-04T23:03:36.817Z,41.85
2023-03-04T23:06:06.216Z,40.28
2023-03-04T23:08:34.288Z,42.45
2023-03-04T23:11:01.895Z,41.85
2023-03-04T23:13:29.487Z,41.08
2023-03-04T23:15:57.017Z,36.45
2023-03-04T23:18:24.562Z,44.10
2023-03-04T23:20:52.259Z,39.08
2023-03-04T23:23:19.769Z,42.65
2023-03-04T23:25:49.136Z,39.55
2023-03-04T23:28:16.652Z,43.53
2023-03-04T23:30:44.173Z,42.85
2023-03-04T23:33:11.714Z,40.20
2023-03-04T23:35:39.236Z,39.83
2023-03-04T23:38:06.795Z,41.40
2023-03-04T23:40:34.338Z,38.08
2023-03-04T23:43:01.982Z,38.97
2023-03-04T23:45:29.518Z,40.88
2023-03-04T23:47:57.061Z,26.38
2023-03-04T23:50:24.581Z,42.97
2023-03-04T23:52:52.198Z,40.95
2023-03-04T23:55:20.091Z,41.65
2023-03-04T23:57:47.741Z,38.80
